Time;durP1;ratioP1;P1;durP2;ratioP2;P2;SDS_P1;SDS_P2;PMS_P1;PMS_P2;Temp;Humidity;BMP_temperature;BMP_pressure;BME280_temperature;BME280_humidity;BME280_pressure;Samples;Min_cycle;Max_cycle;Signal;HPM_P1;HPM_P2
2022/05/23 00:00:17;;;;;;;;;;;;;;;16.16;61.32;96150.19;30001;982;1868;-57
2022/05/23 00:00:49;;;;;;;;;;;;;;;16.14;61.57;96155.19;30001;982;1869;-59
2022/05/23 00:01:21;;;;;;;;;;;;;;;16.13;61.72;96150.88;30001;982;1882;-58
2022/05/23 00:01:52;;;;;;;;;;;;;;;16.12;61.82;96157.47;30001;982;1865;-58
2022/05/23 00:02:23;;;;;;;;;;;;;;;16.09;62.09;96159.75;30001;982;1873;-59
2022/05/23 00:02:55;;;;;;;;;;;;;;;16.08;62.72;96155.44;30001;983;1877;-58
2022/05/23 00:03:27;;;;;;;;;;;;;;;16.05;62.52;96150.66;30001;983;1881;-58
2022/05/23 00:03:58;;;;;;;;;;;;;;;16.04;62.03;96149.06;30001;983;1877;-59
2022/05/23 00:04:29;;;;;;;;;;;;;;;16.02;61.72;96145.06;30001;983;1881;-58
2022/05/23 00:05:02;;;;;;;;;;;;;;;16.01;62.21;96147.00;30001;987;1864;-57
2022/05/23 00:05:33;;;;;;;;;;;;;;;16.00;61.71;96148.16;30001;983;1859;-59
2022/05/23 00:06:05;;;;;;;;;;;;;;;16.00;61.47;96147.34;30001;983;1877;-58
2022/05/23 00:06:36;;;;;;;;;;;;;;;16.01;61.24;96143.47;30001;983;1869;-58
2022/05/23 00:07:17;;;;;;;;;;;;;;;16.00;61.94;96147.34;30001;982;1869;-59
2022/05/23 00:07:49;;;;;;;;;;;;;;;16.00;61.25;96139.13;30001;982;1882;-59
2022/05/23 00:08:22;;;;;;;;;;;;;;;16.01;60.63;96143.47;30001;982;1877;-58
2022/05/23 00:08:53;;;;;;;;;;;;;;;16.02;61.12;96143.13;30001;982;1882;-59
2022/05/23 00:09:24;;;;;;;;;;;;;;;16.04;60.52;96140.84;30001;983;1877;-58
2022/05/23 00:09:55;;;;;;;;;;;;;;;16.05;60.37;96147.13;30001;983;1881;-59
2022/05/23 00:10:26;;;;;;;;;;;;;;;16.06;60.62;96141.28;30001;983;1877;-58
2022/05/23 00:10:56;;;;;;;;;;;;;;;16.07;60.48;96142.09;30001;983;1881;-57
2022/05/23 00:11:27;;;;;;;;;;;;;;;16.07;60.38;96139.34;30001;983;1877;-57
2022/05/23 00:11:58;;;;;;;;;;;;;;;16.06;60.26;96135.81;30001;983;1868;-59
2022/05/23 00:12:29;;;;;;;;;;;;;;;16.06;60.35;96138.56;30001;983;1868;-58
2022/05/23 00:13:00;;;;;;;;;;;;;;;16.06;61.02;96141.28;30001;983;1882;-58
2022/05/23 00:13:31;;;;;;;;;;;;;;;16.05;60.85;96142.44;30001;983;1877;-59
2022/05/23 00:14:02;;;;;;;;;;;;;;;16.08;60.25;96139.00;30001;983;1882;-58
2022/05/23 00:14:32;;;;;;;;;;;;;;;16.09;60.28;96140.59;30001;982;1877;-59
2022/05/23 00:15:08;;;;;;;;;;;;;;;16.13;60.09;96139.91;30001;984;1882;-59
2022/05/23 00:15:39;;;;;;;;;;;;;;;16.17;59.67;96135.34;30001;982;1878;-60
2022/05/23 00:16:14;;;;;;;;;;;;;;;16.20;59.76;96135.44;30001;982;1882;-59
2022/05/23 00:16:47;;;;;;;;;;;;;;;16.24;59.72;96138.28;30001;982;1878;-57
2022/05/23 00:17:19;;;;;;;;;;;;;;;16.25;59.26;96137.16;30001;983;1868;-59
2022/05/23 00:17:50;;;;;;;;;;;;;;;16.24;59.52;96132.81;30001;983;1868;-60
2022/05/23 00:18:21;;;;;;;;;;;;;;;16.24;59.52;96141.03;30001;983;1881;-59
2022/05/23 00:18:53;;;;;;;;;;;;;;;16.25;59.22;96134.41;30001;969;1839;-58
2022/05/23 00:19:24;;;;;;;;;;;;;;;16.25;59.41;96137.16;30001;983;1881;-59
2022/05/23 00:19:56;;;;;;;;;;;;;;;16.25;59.35;96137.16;30001;983;1877;-57
2022/05/23 00:20:27;;;;;;;;;;;;;;;16.25;59.61;96134.41;30001;983;1882;-57
2022/05/23 00:20:58;;;;;;;;;;;;;;;16.25;59.47;96132.47;30001;983;1877;-61
2022/05/23 00:21:28;;;;;;;;;;;;;;;16.24;59.97;96132.81;30001;983;1881;-59
2022/05/23 00:21:59;;;;;;;;;;;;;;;16.23;59.42;96134.75;30001;982;1877;-59
2022/05/23 00:22:31;;;;;;;;;;;;;;;16.22;59.62;96133.16;30001;986;1869;-59
2022/05/23 00:23:02;;;;;;;;;;;;;;;16.22;59.70;96132.38;30001;982;1855;-59
2022/05/23 00:23:33;;;;;;;;;;;;;;;16.20;59.74;96129.19;30001;982;1882;-59
2022/05/23 00:24:04;;;;;;;;;;;;;;;16.18;59.74;96131.47;30001;982;1878;-59
2022/05/23 00:24:41;;;;;;;;;;;;;;;16.17;60.00;96129.87;30001;986;1881;-58
2022/05/23 00:25:12;;;;;;;;;;;;;;;16.15;59.80;96130.22;30001;983;1877;-59
2022/05/23 00:25:43;;;;;;;;;;;;;;;16.16;59.67;96125.53;30001;983;1881;-59
2022/05/23 00:26:17;;;;;;;;;;;;;;;16.14;60.24;96131.38;30001;983;1864;-58
2022/05/23 00:26:50;;;;;;;;;;;;;;;16.13;60.80;96135.25;30001;983;1873;-58
2022/05/23 00:27:23;;;;;;;;;;;;;;;16.09;60.93;96128.87;30001;966;1903;-58
2022/05/23 00:27:54;;;;;;;;;;;;;;;16.08;60.94;96139.00;30001;983;1868;-58
2022/05/23 00:28:24;;;;;;;;;;;;;;;16.06;61.82;96133.09;30001;983;1868;-58
2022/05/23 00:28:55;;;;;;;;;;;;;;;16.04;61.83;96135.38;30001;983;1860;-59
2022/05/23 00:29:26;;;;;;;;;;;;;;;16.03;61.22;96120.09;30001;982;1877;-59
2022/05/23 00:29:57;;;;;;;;;;;;;;;16.02;61.59;96129.44;30001;972;1903;-59
2022/05/23 00:30:28;;;;;;;;;;;;;;;16.01;61.78;96125.12;30001;982;1878;-58
2022/05/23 00:30:59;;;;;;;;;;;;;;;15.99;62.39;96124.66;30001;982;1882;-57
2022/05/23 00:31:31;;;;;;;;;;;;;;;15.97;62.76;96123.41;30001;982;1877;-57
2022/05/23 00:35:18;;;;;;;;;;;;;;;15.93;61.48;96100.66;30001;983;1882;-57
2022/05/23 00:35:50;;;;;;;;;;;;;;;15.93;61.56;96092.44;30001;983;1877;-58
2022/05/23 00:36:24;;;;;;;;;;;;;;;15.96;61.07;96086.25;30001;983;1869;-57
2022/05/23 00:36:55;;;;;;;;;;;;;;;16.00;61.41;96087.94;30001;982;1856;-58
2022/05/23 00:37:27;;;;;;;;;;;;;;;16.01;61.17;96084.06;30001;982;1882;-59
2022/05/23 00:37:59;;;;;;;;;;;;;;;16.03;60.98;96073.56;30001;982;1878;-58
2022/05/23 00:38:29;;;;;;;;;;;;;;;16.02;60.99;96080.19;30001;982;1882;-57
2022/05/23 00:39:00;;;;;;;;;;;;;;;16.00;61.13;96087.94;30001;982;1878;-57
2022/05/23 00:39:31;;;;;;;;;;;;;;;15.97;61.08;96082.38;30001;983;1881;-58
2022/05/23 00:40:06;;;;;;;;;;;;;;;15.95;61.04;96087.41;30001;983;1877;-58
2022/05/23 00:40:39;;;;;;;;;;;;;;;15.92;61.36;96086.19;30001;983;1881;-58
2022/05/23 00:43:13;;;;;;;;;;;;;;;15.83;62.65;96084.72;30001;983;1850;-59
2022/05/23 00:43:49;;;;;;;;;;;;;;;15.82;62.49;96078.44;30001;982;1882;-58
2022/05/23 00:44:22;;;;;;;;;;;;;;;15.83;62.40;96073.78;30001;982;1877;-59
2022/05/23 00:44:54;;;;;;;;;;;;;;;15.82;62.42;96075.72;30001;982;1882;-58
2022/05/23 00:45:25;;;;;;;;;;;;;;;15.81;63.04;96079.59;30001;982;1877;-57
2022/05/23 00:46:04;;;;;;;;;;;;;;;15.79;62.78;96070.94;30001;982;1882;-58
2022/05/23 00:46:35;;;;;;;;;;;;;;;15.77;64.06;96070.47;30001;982;1865;-57
2022/05/23 00:47:23;;;;;;;;;;;;;;;15.76;63.17;96066.16;30001;983;1872;-58
2022/05/23 00:48:01;;;;;;;;;;;;;;;15.74;63.00;96071.16;30001;983;1877;-58
2022/05/23 00:48:32;;;;;;;;;;;;;;;15.72;64.03;96076.19;30001;983;1868;-57
2022/05/23 00:49:04;;;;;;;;;;;;;;;15.70;64.03;96067.53;30001;983;1868;-57
2022/05/23 00:49:36;;;;;;;;;;;;;;;15.67;64.39;96069.00;30001;983;1881;-57
2022/05/23 00:50:08;;;;;;;;;;;;;;;15.65;64.11;96075.97;30001;983;1877;-58
2022/05/23 00:50:43;;;;;;;;;;;;;;;15.65;63.86;96071.28;30001;983;1882;-58
2022/05/23 00:51:15;;;;;;;;;;;;;;;15.64;64.41;96071.62;30001;982;1864;-57
2022/05/23 00:51:46;;;;;;;;;;;;;;;15.62;64.33;96076.66;30001;982;1873;-57
2022/05/23 00:52:21;;;;;;;;;;;;;;;15.60;64.05;96077.00;30001;982;1877;-58
2022/05/23 00:52:54;;;;;;;;;;;;;;;15.61;64.14;96072.31;30001;982;1882;-58
2022/05/23 00:53:30;;;;;;;;;;;;;;;15.61;64.28;96075.06;30001;982;1864;-58
2022/05/23 00:54:05;;;;;;;;;;;;;;;15.60;64.26;96081.66;30001;982;1873;-58
2022/05/23 00:54:38;;;;;;;;;;;;;;;15.59;63.74;96078.16;30001;983;1877;-59
2022/05/23 00:55:24;;;;;;;;;;;;;;;15.59;64.07;96077.38;30001;983;1868;-58
2022/05/23 00:55:55;;;;;;;;;;;;;;;15.57;64.06;96079.66;30001;983;1868;-58
2022/05/23 00:56:30;;;;;;;;;;;;;;;15.55;64.68;96068.22;30001;983;1881;-58
2022/05/23 00:57:02;;;;;;;;;;;;;;;15.54;64.66;96072.09;30001;983;1877;-59
2022/05/23 00:57:40;;;;;;;;;;;;;;;15.53;65.37;96078.69;30001;983;1881;-57
2022/05/23 00:58:14;;;;;;;;;;;;;;;15.51;64.83;96075.50;30001;983;1864;-57
2022/05/23 00:58:51;;;;;;;;;;;;;;;15.50;64.73;96082.13;30001;982;1873;-57
2022/05/23 00:59:28;;;;;;;;;;;;;;;15.49;64.32;96073.13;30001;982;1877;-57
2022/05/23 01:00:00;;;;;;;;;;;;;;;15.50;63.59;96065.72;30001;982;1869;-58
2022/05/23 01:00:31;;;;;;;;;;;;;;;15.52;63.65;96071.62;30001;982;1855;-58
2022/05/23 01:01:05;;;;;;;;;;;;;;;15.52;63.40;96071.62;30001;982;1882;-58
2022/05/23 01:01:37;;;;;;;;;;;;;;;15.52;63.67;96074.38;30001;982;1865;-59
2022/05/23 01:02:11;;;;;;;;;;;;;;;15.51;63.83;96072.78;30001;983;1872;-58
2022/05/23 01:02:44;;;;;;;;;;;;;;;15.50;63.57;96068.44;30001;983;1877;-58
2022/05/23 01:03:17;;;;;;;;;;;;;;;15.51;63.86;96072.78;30001;983;1881;-58
2022/05/23 01:03:48;;;;;;;;;;;;;;;15.53;63.51;96067.78;30001;983;1877;-59
2022/05/23 01:04:21;;;;;;;;;;;;;;;15.56;62.99;96067.09;30001;983;1881;-58
2022/05/23 01:04:52;;;;;;;;;;;;;;;15.58;63.00;96064.84;30001;983;1877;-58
2022/05/23 01:05:24;;;;;;;;;;;;;;;15.56;63.59;96078.03;30001;983;1881;-58
2022/05/23 01:05:56;;;;;;;;;;;;;;;15.55;63.44;96066.28;30001;983;1877;-58
2022/05/23 01:06:30;;;;;;;;;;;;;;;15.56;63.45;96061.63;30001;982;1881;-57
2022/05/23 01:07:00;;;;;;;;;;;;;;;15.55;63.60;96065.50;30001;982;1864;-57
2022/05/23 01:07:31;;;;;;;;;;;;;;;15.55;63.41;96065.50;30001;982;1873;-58
2022/05/23 01:08:04;;;;;;;;;;;;;;;15.55;63.23;96060.03;30001;982;1877;-58
2022/05/23 01:08:37;;;;;;;;;;;;;;;15.56;63.09;96062.44;30001;982;1882;-57
2022/05/23 01:09:08;;;;;;;;;;;;;;;15.56;63.34;96056.16;30001;982;1865;-59
2022/05/23 01:09:39;;;;;;;;;;;;;;;15.55;63.24;96060.03;30001;983;1784;-58
2022/05/23 01:10:10;;;;;;;;;;;;;;;15.54;63.48;96061.97;30001;983;1877;-57
2022/05/23 01:10:42;;;;;;;;;;;;;;;15.53;63.66;96057.62;30001;983;1881;-58
2022/05/23 01:11:13;;;;;;;;;;;;;;;15.52;64.24;96055.25;30001;983;1877;-58
2022/05/23 01:11:46;;;;;;;;;;;;;;;15.52;63.75;96055.25;30001;983;1881;-58
2022/05/23 01:12:17;;;;;;;;;;;;;;;15.51;63.91;96059.13;30001;983;1877;-58
2022/05/23 01:12:48;;;;;;;;;;;;;;;15.50;64.07;96057.53;30001;983;1881;-58
2022/05/23 01:13:18;;;;;;;;;;;;;;;15.47;63.80;96058.19;30001;983;1877;-57
2022/05/23 01:13:53;;;;;;;;;;;;;;;15.46;64.05;96062.06;30001;982;1882;-57
2022/05/23 01:14:24;;;;;;;;;;;;;;;15.45;63.81;96057.75;30001;982;1864;-58
2022/05/23 01:14:56;;;;;;;;;;;;;;;15.43;63.77;96058.88;30001;982;1860;-58
2022/05/23 01:15:28;;;;;;;;;;;;;;;15.46;63.29;96053.87;30001;982;1877;-59
2022/05/23 01:15:59;;;;;;;;;;;;;;;15.49;63.08;96054.00;30001;982;1882;-58
2022/05/23 01:16:29;;;;;;;;;;;;;;;15.52;62.89;96053.31;30001;983;1877;-58
2022/05/23 01:17:00;;;;;;;;;;;;;;;15.53;62.97;96056.84;30001;983;1881;-59
2022/05/23 01:17:31;;;;;;;;;;;;;;;15.54;62.83;96050.22;30001;986;1877;-58
2022/05/23 01:18:03;;;;;;;;;;;;;;;15.55;62.75;96046.34;30001;983;1881;-57
2022/05/23 01:18:33;;;;;;;;;;;;;;;15.59;62.45;96048.09;30001;983;1877;-58
2022/05/23 01:19:04;;;;;;;;;;;;;;;15.67;62.11;96046.34;30001;983;1881;-58
2022/05/23 01:19:35;;;;;;;;;;;;;;;15.70;62.39;96045.66;30001;983;1864;-58
2022/05/23 01:20:07;;;;;;;;;;;;;;;15.71;62.22;96044.50;30001;983;1873;-58
2022/05/23 01:20:38;;;;;;;;;;;;;;;15.74;62.17;96046.53;30001;983;1864;-58
2022/05/23 01:21:13;;;;;;;;;;;;;;;15.75;62.05;96042.66;30001;983;1873;-58
2022/05/23 01:21:49;;;;;;;;;;;;;;;15.74;62.06;96036.41;30001;982;1877;-59
2022/05/23 01:22:27;;;;;;;;;;;;;;;15.74;62.20;96030.13;30001;982;1882;-59
2022/05/23 01:23:23;;;;;;;;;;;;;;;15.73;62.22;96031.28;30001;982;1878;-57
2022/05/23 01:24:06;;;;;;;;;;;;;;;15.71;62.27;96030.81;30001;983;1877;-59
2022/05/23 01:24:43;;;;;;;;;;;;;;;15.70;62.53;96040.19;30001;983;1863;-58
2022/05/23 01:25:37;;;;;;;;;;;;;;;15.70;62.46;96034.69;30001;983;1872;-58
2022/05/23 01:26:08;;;;;;;;;;;;;;;15.68;62.64;96034.25;30001;963;1854;-58
2022/05/23 01:26:38;;;;;;;;;;;;;;;15.65;62.62;96034.94;30001;983;1881;-59
2022/05/23 01:27:11;;;;;;;;;;;;;;;15.65;62.54;96034.94;30001;983;1877;-58
2022/05/23 01:27:43;;;;;;;;;;;;;;;15.64;62.61;96036.09;30001;983;1847;-58
2022/05/23 01:28:15;;;;;;;;;;;;;;;15.61;62.84;96034.84;30001;983;1868;-57
2022/05/23 01:28:46;;;;;;;;;;;;;;;15.58;63.04;96026.56;30001;983;1882;-57
2022/05/23 01:29:17;;;;;;;;;;;;;;;15.57;63.27;96033.16;30001;982;1864;-60
2022/05/23 01:29:48;;;;;;;;;;;;;;;15.55;62.72;96032.69;30001;982;1860;-58
2022/05/23 01:30:20;;;;;;;;;;;;;;;15.55;63.31;96027.22;30001;982;1877;-58
2022/05/23 01:30:51;;;;;;;;;;;;;;;15.54;63.03;96031.09;30001;982;1882;-57
2022/05/23 01:31:22;;;;;;;;;;;;;;;15.54;63.55;96023.69;30001;982;1878;-58
2022/05/23 01:31:53;;;;;;;;;;;;;;;15.55;63.33;96021.75;30001;983;1868;-58
2022/05/23 01:32:24;;;;;;;;;;;;;;;15.57;63.43;96024.97;30001;983;1868;-59
2022/05/23 01:32:55;;;;;;;;;;;;;;;15.55;63.26;96028.00;30001;983;1881;-58
2022/05/23 01:33:26;;;;;;;;;;;;;;;15.53;63.51;96022.09;30001;983;1778;-58
2022/05/23 01:33:57;;;;;;;;;;;;;;;15.52;63.36;96023.22;30001;983;1881;-57
2022/05/23 01:34:27;;;;;;;;;;;;;;;15.52;63.49;96027.91;30001;983;1877;-57
2022/05/23 01:34:58;;;;;;;;;;;;;;;15.51;63.43;96024.38;30001;983;1881;-57
2022/05/23 01:35:29;;;;;;;;;;;;;;;15.51;63.22;96029.03;30001;983;1877;-58
2022/05/23 01:36:00;;;;;;;;;;;;;;;15.50;63.61;96020.03;30001;983;1882;-58
2022/05/23 01:36:31;;;;;;;;;;;;;;;15.51;63.45;96026.31;30001;986;1864;-59
2022/05/23 01:37:02;;;;;;;;;;;;;;;15.51;63.63;96027.09;30001;982;1873;-58
2022/05/23 01:37:33;;;;;;;;;;;;;;;15.52;63.79;96025.16;30001;982;1864;-58
2022/05/23 01:38:05;;;;;;;;;;;;;;;15.53;63.51;96021.28;30001;982;1873;-58
2022/05/23 01:38:35;;;;;;;;;;;;;;;15.50;63.83;96021.97;30001;982;1877;-58
2022/05/23 01:39:06;;;;;;;;;;;;;;;15.46;64.29;96021.06;30001;983;1881;-57
2022/05/23 01:39:37;;;;;;;;;;;;;;;15.43;63.97;96020.63;30001;983;1877;-56
2022/05/23 01:40:10;;;;;;;;;;;;;;;15.42;64.18;96019.03;30001;983;1881;-58
2022/05/23 01:40:41;;;;;;;;;;;;;;;15.43;63.98;96026.09;30001;983;1877;-58
2022/05/23 01:41:12;;;;;;;;;;;;;;;15.42;64.14;96024.50;30001;983;1881;-58
2022/05/23 01:41:43;;;;;;;;;;;;;;;15.41;63.85;96020.16;30001;983;1877;-57
2022/05/23 01:42:14;;;;;;;;;;;;;;;15.41;64.07;96014.69;30001;983;1868;-57
2022/05/23 01:42:45;;;;;;;;;;;;;;;15.39;63.96;96024.38;30001;983;1868;-59
2022/05/23 01:43:16;;;;;;;;;;;;;;;15.38;64.60;96023.59;30001;983;1881;-58
2022/05/23 01:43:47;;;;;;;;;;;;;;;15.35;64.15;96024.28;30001;983;1877;-58
2022/05/23 01:44:18;;;;;;;;;;;;;;;15.34;64.91;96028.16;30001;982;1882;-57
2022/05/23 01:44:49;;;;;;;;;;;;;;;15.32;65.25;96033.16;30001;982;1877;-57
2022/05/23 01:45:21;;;;;;;;;;;;;;;15.30;65.39;96021.78;30001;982;1882;-58
2022/05/23 01:45:55;;;;;;;;;;;;;;;15.29;65.44;96030.31;30001;982;1878;-58
2022/05/23 01:46:26;;;;;;;;;;;;;;;15.27;65.46;96030.66;30001;982;1882;-57
2022/05/23 01:46:56;;;;;;;;;;;;;;;15.25;66.06;96030.19;30001;983;1863;-58
2022/05/23 01:47:27;;;;;;;;;;;;;;;15.22;66.07;96025.44;30001;983;1872;-57
2022/05/23 01:47:59;;;;;;;;;;;;;;;15.21;66.56;96034.78;30001;983;1877;-58
2022/05/23 01:48:30;;;;;;;;;;;;;;;15.19;66.58;96028.88;30001;983;1881;-59
2022/05/23 01:49:01;;;;;;;;;;;;;;;15.18;65.89;96024.53;30001;983;1877;-57
2022/05/23 01:49:32;;;;;;;;;;;;;;;15.19;66.05;96031.59;30001;983;1881;-58
2022/05/23 01:50:03;;;;;;;;;;;;;;;15.18;66.32;96030.00;30001;983;1877;-58
2022/05/23 01:50:35;;;;;;;;;;;;;;;15.13;66.91;96026.69;30001;983;1881;-57
2022/05/23 01:51:06;;;;;;;;;;;;;;;15.11;67.01;96024.31;30001;982;1877;-58
2022/05/23 01:51:38;;;;;;;;;;;;;;;15.09;67.05;96032.06;30001;963;1887;-59
2022/05/23 01:52:09;;;;;;;;;;;;;;;15.08;66.97;96027.72;30001;982;1869;-59
2022/05/23 01:52:40;;;;;;;;;;;;;;;15.06;66.80;96030.00;30001;982;1882;-58
2022/05/23 01:53:11;;;;;;;;;;;;;;;15.07;66.65;96032.38;30001;982;1877;-58
2022/05/23 01:53:45;;;;;;;;;;;;;;;15.08;67.04;96030.47;30001;982;1882;-58
2022/05/23 01:54:16;;;;;;;;;;;;;;;15.08;67.27;96030.47;30001;983;1877;-59
2022/05/23 01:54:46;;;;;;;;;;;;;;;15.07;67.04;96039.78;30001;983;1881;-58
2022/05/23 01:55:17;;;;;;;;;;;;;;;15.07;66.55;96037.84;30001;983;1877;-59
2022/05/23 01:55:48;;;;;;;;;;;;;;;15.08;66.14;96030.47;30001;983;1881;-58
2022/05/23 01:56:22;;;;;;;;;;;;;;;15.11;66.07;96035.25;30001;972;1902;-58
2022/05/23 01:56:52;;;;;;;;;;;;;;;15.15;65.72;96029.87;30001;983;1868;-57
2022/05/23 01:57:24;;;;;;;;;;;;;;;15.19;65.67;96026.12;30001;983;1868;-58
2022/05/23 01:57:58;;;;;;;;;;;;;;;15.21;65.62;96023.84;30001;983;1881;-59
2022/05/23 02:01:14;;;;;;;;;;;;;;;15.31;65.03;96017.91;30001;982;1882;-57
2022/05/23 02:01:45;;;;;;;;;;;;;;;15.34;64.89;96017.22;30001;983;1877;-58
2022/05/23 02:02:17;;;;;;;;;;;;;;;15.36;64.54;96025.88;30001;983;1868;-60
2022/05/23 02:02:48;;;;;;;;;;;;;;;15.38;64.61;96025.53;30001;983;1868;-58
2022/05/23 02:03:19;;;;;;;;;;;;;;;15.35;64.82;96018.00;30001;983;1881;-57
2022/05/23 02:03:50;;;;;;;;;;;;;;;15.34;64.65;96019.16;30001;983;1877;-58
2022/05/23 02:04:21;;;;;;;;;;;;;;;15.33;64.80;96021.09;30001;983;1868;-58
2022/05/23 02:04:52;;;;;;;;;;;;;;;15.31;64.29;96012.44;30001;983;1868;-57
2022/05/23 02:05:25;;;;;;;;;;;;;;;15.33;64.89;96020.28;30001;983;1882;-58
2022/05/23 02:05:56;;;;;;;;;;;;;;;15.32;64.54;96016.75;30001;982;1877;-57
2022/05/23 02:06:27;;;;;;;;;;;;;;;15.36;64.66;96014.13;30001;982;1882;-57
2022/05/23 02:06:57;;;;;;;;;;;;;;;15.37;64.22;96016.53;30001;982;1877;-57
2022/05/23 02:07:29;;;;;;;;;;;;;;;15.37;64.33;96010.25;30001;982;1882;-57
2022/05/23 02:08:01;;;;;;;;;;;;;;;15.39;64.01;96007.97;30001;982;1864;-58
2022/05/23 02:08:31;;;;;;;;;;;;;;;15.39;64.08;96008.78;30001;982;1873;-57
2022/05/23 02:09:04;;;;;;;;;;;;;;;15.39;64.16;96003.31;30001;978;1879;-58
2022/05/23 02:09:35;;;;;;;;;;;;;;;15.37;63.95;96005.59;30001;983;1872;-57
2022/05/23 02:10:06;;;;;;;;;;;;;;;15.37;63.65;96005.59;30001;983;1877;-57
2022/05/23 02:10:38;;;;;;;;;;;;;;;15.38;63.81;96000.91;30001;983;1881;-59
2022/05/23 02:11:09;;;;;;;;;;;;;;;15.37;63.56;96002.84;30001;983;1877;-59
2022/05/23 02:11:40;;;;;;;;;;;;;;;15.38;63.88;96003.66;30001;983;1881;-58
2022/05/23 02:12:12;;;;;;;;;;;;;;;15.35;63.24;95996.12;30001;983;1877;-57
2022/05/23 02:12:43;;;;;;;;;;;;;;;15.38;63.49;95998.97;30001;983;1881;-58
2022/05/23 02:13:14;;;;;;;;;;;;;;;15.37;63.17;96005.59;30001;983;1877;-58
2022/05/23 02:13:46;;;;;;;;;;;;;;;15.38;62.78;96000.91;30001;982;1869;-58
2022/05/23 02:14:16;;;;;;;;;;;;;;;15.41;62.88;96006.50;30001;982;1868;-58
2022/05/23 02:14:49;;;;;;;;;;;;;;;15.43;62.58;96001.47;30001;982;1882;-57
2022/05/23 02:15:20;;;;;;;;;;;;;;;15.44;62.77;95999.53;30001;982;1864;-58
2022/05/23 02:15:51;;;;;;;;;;;;;;;15.45;62.11;95997.59;30001;982;1873;-58
2022/05/23 02:16:23;;;;;;;;;;;;;;;15.45;62.08;96000.34;30001;982;1878;-58
2022/05/23 02:16:54;;;;;;;;;;;;;;;15.47;62.25;96000.78;30001;983;1881;-57
2022/05/23 02:17:25;;;;;;;;;;;;;;;15.44;62.17;95996.81;30001;983;1877;-58
2022/05/23 02:18:00;;;;;;;;;;;;;;;15.42;62.24;95997.16;30001;983;1881;-57
2022/05/23 02:18:31;;;;;;;;;;;;;;;15.40;62.34;95993.97;30001;983;1877;-57
2022/05/23 02:19:02;;;;;;;;;;;;;;;15.37;62.31;96000.13;30001;983;1881;-58
2022/05/23 02:19:33;;;;;;;;;;;;;;;15.38;62.15;95990.78;30001;983;1877;-58
2022/05/23 02:20:05;;;;;;;;;;;;;;;15.40;62.42;95983.03;30001;983;1881;-57
2022/05/23 02:20:37;;;;;;;;;;;;;;;15.39;62.42;95988.84;30001;983;1864;-58
2022/05/23 02:21:07;;;;;;;;;;;;;;;15.38;61.99;95979.06;30001;982;1864;-58
2022/05/23 02:21:39;;;;;;;;;;;;;;;15.38;62.37;95988.06;30001;982;1877;-58
2022/05/23 02:22:09;;;;;;;;;;;;;;;15.40;62.07;95988.50;30001;982;1882;-58
2022/05/23 02:22:41;;;;;;;;;;;;;;;15.42;61.93;95980.75;30001;982;1877;-58
2022/05/23 02:23:11;;;;;;;;;;;;;;;15.43;62.08;95981.56;30001;982;1882;-58
2022/05/23 02:23:42;;;;;;;;;;;;;;;15.42;61.85;95980.75;30001;983;1876;-59
2022/05/23 02:24:13;;;;;;;;;;;;;;;15.41;61.96;95978.38;30001;960;1904;-57
2022/05/23 02:24:44;;;;;;;;;;;;;;;15.41;62.03;95978.38;30001;983;1877;-58
2022/05/23 02:25:15;;;;;;;;;;;;;;;15.43;61.95;95976.87;30001;983;1881;-58
2022/05/23 02:25:46;;;;;;;;;;;;;;;15.46;61.83;95974.59;30001;983;1864;-58
2022/05/23 02:26:19;;;;;;;;;;;;;;;15.46;61.97;95971.88;30001;983;1873;-58
2022/05/23 02:26:50;;;;;;;;;;;;;;;15.49;61.40;95980.16;30001;983;1877;-59
2022/05/23 02:27:21;;;;;;;;;;;;;;;15.49;61.66;95973.91;30001;983;1881;-58
2022/05/23 02:27:52;;;;;;;;;;;;;;;15.49;61.37;95979.38;30001;983;1877;-57
2022/05/23 02:28:23;;;;;;;;;;;;;;;15.48;61.37;95973.09;30001;983;1881;-58
2022/05/23 02:28:54;;;;;;;;;;;;;;;15.46;61.62;95980.88;30001;982;1878;-57
2022/05/23 02:29:25;;;;;;;;;;;;;;;15.47;61.57;95974.25;30001;982;1882;-58
2022/05/23 02:29:57;;;;;;;;;;;;;;;15.47;61.20;95977.00;30001;982;1877;-58
2022/05/23 02:30:28;;;;;;;;;;;;;;;15.49;61.66;95973.91;30001;982;1882;-58
2022/05/23 02:30:59;;;;;;;;;;;;;;;15.46;61.36;95980.88;30001;982;1864;-59
2022/05/23 02:31:30;;;;;;;;;;;;;;;15.46;61.84;95978.13;30001;983;1872;-57
2022/05/23 02:32:02;;;;;;;;;;;;;;;15.47;61.61;95976.19;30001;983;1877;-57
2022/05/23 02:32:32;;;;;;;;;;;;;;;15.48;61.45;95969.59;30001;983;1881;-58
2022/05/23 02:33:04;;;;;;;;;;;;;;;15.49;60.96;95974.69;30001;983;1877;-58
2022/05/23 02:33:35;;;;;;;;;;;;;;;15.48;61.33;95975.06;30001;983;1881;-58
2022/05/23 02:34:06;;;;;;;;;;;;;;;15.50;60.68;95970.03;30001;983;1877;-57
2022/05/23 02:34:37;;;;;;;;;;;;;;;15.52;60.73;95967.75;30001;983;1868;-57
2022/05/23 02:35:08;;;;;;;;;;;;;;;15.50;60.71;95964.56;30001;983;1868;-58
2022/05/23 02:35:39;;;;;;;;;;;;;;;15.50;60.85;95962.63;30001;983;1881;-58
2022/05/23 02:36:11;;;;;;;;;;;;;;;15.53;60.49;95964.66;30001;982;1877;-57
2022/05/23 02:36:43;;;;;;;;;;;;;;;15.57;60.45;95960.13;30001;982;1881;-58
2022/05/23 02:37:15;;;;;;;;;;;;;;;15.62;59.99;95956.34;30001;982;1877;-58
2022/05/23 02:37:45;;;;;;;;;;;;;;;15.62;60.01;95956.34;30001;982;1882;-58
2022/05/23 02:38:16;;;;;;;;;;;;;;;15.60;59.97;95948.47;30001;982;1878;-58
2022/05/23 02:38:47;;;;;;;;;;;;;;;15.60;59.91;95953.16;30001;983;1868;-58
2022/05/23 02:39:18;;;;;;;;;;;;;;;15.60;59.85;95953.16;30001;983;1868;-58
2022/05/23 02:39:52;;;;;;;;;;;;;;;15.61;60.00;95954.75;30001;983;1881;-57
2022/05/23 02:40:23;;;;;;;;;;;;;;;15.59;60.11;95951.59;30001;983;1877;-58
2022/05/23 02:40:54;;;;;;;;;;;;;;;15.59;59.99;95948.84;30001;983;1881;-57
2022/05/23 02:41:25;;;;;;;;;;;;;;;15.60;59.68;95942.22;30001;983;1877;-58
2022/05/23 02:41:56;;;;;;;;;;;;;;;15.58;60.02;95942.59;30001;983;1882;-58
2022/05/23 02:42:27;;;;;;;;;;;;;;;15.57;60.02;95942.94;30001;983;1864;-57
2022/05/23 02:42:58;;;;;;;;;;;;;;;15.60;60.23;95942.22;30001;983;1873;-58
2022/05/23 02:43:30;;;;;;;;;;;;;;;15.58;59.95;95939.06;30001;983;1877;-57
2022/05/23 02:44:01;;;;;;;;;;;;;;;15.56;59.94;95936.66;30001;982;1882;-57
2022/05/23 02:44:32;;;;;;;;;;;;;;;15.55;59.80;95928.78;30001;982;1878;-58
2022/05/23 02:45:03;;;;;;;;;;;;;;;15.55;59.94;95939.72;30001;982;1869;-58
2022/05/23 02:45:37;;;;;;;;;;;;;;;15.53;60.08;95936.53;30001;982;1869;-57
2022/05/23 02:46:08;;;;;;;;;;;;;;;15.52;59.85;95933.00;30001;983;1868;-58
2022/05/23 02:46:39;;;;;;;;;;;;;;;15.53;59.79;95931.87;30001;983;1868;-58
2022/05/23 02:47:10;;;;;;;;;;;;;;;15.52;60.23;95930.28;30001;983;1881;-60
2022/05/23 02:47:43;;;;;;;;;;;;;;;15.52;59.77;95934.94;30001;983;1877;-57
2022/05/23 02:48:14;;;;;;;;;;;;;;;15.49;59.94;95935.62;30001;983;1881;-57
2022/05/23 02:48:45;;;;;;;;;;;;;;;15.46;60.01;95931.66;30001;983;1877;-58
2022/05/23 02:49:16;;;;;;;;;;;;;;;15.43;60.44;95933.13;30001;983;1881;-57
2022/05/23 02:49:47;;;;;;;;;;;;;;;15.41;60.49;95938.16;30001;983;1782;-57
2022/05/23 02:50:18;;;;;;;;;;;;;;;15.39;60.72;95937.72;30001;982;1882;-57
2022/05/23 02:50:49;;;;;;;;;;;;;;;15.36;60.42;95930.19;30001;982;1877;-58
2022/05/23 02:51:20;;;;;;;;;;;;;;;15.34;60.67;95937.94;30001;982;1869;-58
2022/05/23 02:51:51;;;;;;;;;;;;;;;15.34;60.58;95934.41;30001;982;1869;-58
2022/05/23 02:52:22;;;;;;;;;;;;;;;15.32;61.15;95942.97;30001;982;1882;-57
2022/05/23 02:52:52;;;;;;;;;;;;;;;15.30;61.63;95937.03;30001;982;1877;-58
2022/05/23 02:53:23;;;;;;;;;;;;;;;15.26;61.63;95938.87;30001;982;1882;-58
2022/05/23 02:53:54;;;;;;;;;;;;;;;15.26;63.11;95938.87;30001;983;1877;-58
2022/05/23 02:54:25;;;;;;;;;;;;;;;15.23;62.86;95934.12;30001;983;1881;-58
2022/05/23 02:54:56;;;;;;;;;;;;;;;15.22;62.65;95940.72;30001;967;1893;-58
2022/05/23 02:55:27;;;;;;;;;;;;;;;15.20;62.93;95939.47;30001;983;1881;-57
2022/05/23 02:55:58;;;;;;;;;;;;;;;15.20;63.00;95940.28;30001;983;1864;-58
2022/05/23 02:56:29;;;;;;;;;;;;;;;15.18;65.24;95937.09;30001;983;1872;-58
2022/05/23 02:56:59;;;;;;;;;;;;;;;15.16;65.04;95933.91;30001;983;1877;-57
2022/05/23 02:57:33;;;;;;;;;;;;;;;15.12;66.26;95938.47;30001;983;1881;-58
2022/05/23 02:58:04;;;;;;;;;;;;;;;15.08;65.79;95943.03;30001;982;1877;-58
2022/05/23 02:58:35;;;;;;;;;;;;;;;15.07;65.29;95942.22;30001;982;1881;-58
2022/05/23 02:59:06;;;;;;;;;;;;;;;15.06;64.86;95928.91;30001;982;1877;-57